sensor_id;sensor_type;location;lat;lon;timestamp;pressure;altitude;pressure_sealevel;temperature;humidity
33161;BME280;19522;45.656;11.302;2022-08-19T00:00:25;97742.75;;;19.91;83.65
33161;BME280;19522;45.656;11.302;2022-08-19T00:02:53;97703.69;;;19.56;83.01
33161;BME280;19522;45.656;11.302;2022-08-19T00:05:19;97770.63;;;19.95;81.89
33161;BME280;19522;45.656;11.302;2022-08-19T00:07:45;97730.81;;;19.80;81.14
33161;BME280;19522;45.656;11.302;2022-08-19T00:10:13;97745.81;;;19.95;81.15
33161;BME280;19522;45.656;11.302;2022-08-19T00:12:39;97751.41;;;20.15;81.32
33161;BME280;19522;45.656;11.302;2022-08-19T00:15:07;97755.69;;;19.90;82.45
33161;BME280;19522;45.656;11.302;2022-08-19T00:17:37;97784.75;;;19.71;84.47
33161;BME280;19522;45.656;11.302;2022-08-19T00:20:04;97802.72;;;19.78;86.85
33161;BME280;19522;45.656;11.302;2022-08-19T00:22:29;97752.53;;;19.39;87.93
33161;BME280;19522;45.656;11.302;2022-08-19T00:24:55;97798.41;;;19.88;87.71
33161;BME280;19522;45.656;11.302;2022-08-19T00:27:20;97747.50;;;20.01;85.02
33161;BME280;19522;45.656;11.302;2022-08-19T00:29:46;97707.47;;;19.88;86.95
33161;BME280;19522;45.656;11.302;2022-08-19T00:32:11;97720.75;;;20.01;88.66
33161;BME280;19522;45.656;11.302;2022-08-19T00:34:37;97730.09;;;19.95;90.46
33161;BME280;19522;45.656;11.302;2022-08-19T00:37:03;97713.47;;;19.85;90.71
33161;BME280;19522;45.656;11.302;2022-08-19T00:39:28;97737.50;;;19.89;88.36
33161;BME280;19522;45.656;11.302;2022-08-19T00:41:55;97769.47;;;19.85;89.05
33161;BME280;19522;45.656;11.302;2022-08-19T00:44:26;97802.25;;;19.54;92.50
33161;BME280;19522;45.656;11.302;2022-08-19T00:46:53;97803.81;;;19.45;94.28
33161;BME280;19522;45.656;11.302;2022-08-19T00:51:58;97688.84;;;19.25;95.65
33161;BME280;19522;45.656;11.302;2022-08-19T00:54:25;97632.22;;;19.34;93.18
33161;BME280;19522;45.656;11.302;2022-08-19T00:56:52;97657.41;;;19.58;91.73
33161;BME280;19522;45.656;11.302;2022-08-19T00:59:18;97624.47;;;19.74;85.51
33161;BME280;19522;45.656;11.302;2022-08-19T01:01:45;97546.47;;;19.58;88.27
33161;BME280;19522;45.656;11.302;2022-08-19T01:04:11;97486.13;;;19.51;87.06
33161;BME280;19522;45.656;11.302;2022-08-19T01:06:38;97516.78;;;19.70;86.46
33161;BME280;19522;45.656;11.302;2022-08-19T01:09:06;97540.81;;;19.85;85.52
33161;BME280;19522;45.656;11.302;2022-08-19T01:11:36;97596.69;;;19.81;87.35
33161;BME280;19522;45.656;11.302;2022-08-19T01:14:05;97643.75;;;19.79;88.42
33161;BME280;19522;45.656;11.302;2022-08-19T01:16:32;97640.28;;;19.46;91.78
33161;BME280;19522;45.656;11.302;2022-08-19T01:18:59;97691.22;;;19.11;95.25
33161;BME280;19522;45.656;11.302;2022-08-19T01:21:34;97757.94;;;19.23;98.52
33161;BME280;19522;45.656;11.302;2022-08-19T01:24:02;97773.97;;;19.31;98.26
33161;BME280;19522;45.656;11.302;2022-08-19T01:26:27;97782.88;;;19.44;98.38
33161;BME280;19522;45.656;11.302;2022-08-19T01:28:56;97793.19;;;19.59;96.18
33161;BME280;19522;45.656;11.302;2022-08-19T01:31:24;97790.22;;;19.66;95.55
33161;BME280;19522;45.656;11.302;2022-08-19T01:33:52;97811.59;;;19.53;96.09
33161;BME280;19522;45.656;11.302;2022-08-19T01:38:50;97790.81;;;19.73;95.66
33161;BME280;19522;45.656;11.302;2022-08-19T01:41:17;97786.28;;;19.89;95.92
33161;BME280;19522;45.656;11.302;2022-08-19T01:43:43;97804.22;;;19.64;97.27
33161;BME280;19522;45.656;11.302;2022-08-19T01:46:09;97820.03;;;19.14;100.00
33161;BME280;19522;45.656;11.302;2022-08-19T01:48:37;97781.34;;;19.26;100.00
33161;BME280;19522;45.656;11.302;2022-08-19T01:51:03;97727.16;;;19.31;100.00
33161;BME280;19522;45.656;11.302;2022-08-19T01:53:29;97711.97;;;19.61;99.39
33161;BME280;19522;45.656;11.302;2022-08-19T01:55:55;97738.94;;;19.22;100.00
33161;BME280;19522;45.656;11.302;2022-08-19T01:58:26;97742.38;;;18.57;100.00
33161;BME280;19522;45.656;11.302;2022-08-19T02:00:54;97765.81;;;18.87;100.00
33161;BME280;19522;45.656;11.302;2022-08-19T02:03:20;97762.13;;;18.98;100.00
33161;BME280;19522;45.656;11.302;2022-08-19T02:05:57;97765.53;;;18.89;100.00
33161;BME280;19522;45.656;11.302;2022-08-19T02:08:25;97792.41;;;19.04;100.00
33161;BME280;19522;45.656;11.302;2022-08-19T02:10:51;97783.69;;;19.12;100.00
33161;BME280;19522;45.656;11.302;2022-08-19T02:13:17;97745.13;;;19.07;100.00
33161;BME280;19522;45.656;11.302;2022-08-19T02:15:43;97723.44;;;19.15;100.00
33161;BME280;19522;45.656;11.302;2022-08-19T02:18:09;97605.31;;;18.71;100.00
33161;BME280;19522;45.656;11.302;2022-08-19T02:20:36;97673.78;;;19.33;100.00
33161;BME280;19522;45.656;11.302;2022-08-19T02:23:02;97658.38;;;18.99;100.00
33161;BME280;19522;45.656;11.302;2022-08-19T02:25:27;97639.78;;;18.84;100.00
33161;BME280;19522;45.656;11.302;2022-08-19T02:27:53;97654.84;;;18.76;100.00
33161;BME280;19522;45.656;11.302;2022-08-19T02:30:19;97643.91;;;18.54;100.00
33161;BME280;19522;45.656;11.302;2022-08-19T02:32:45;97685.03;;;18.93;100.00
33161;BME280;19522;45.656;11.302;2022-08-19T02:35:13;97699.97;;;19.03;100.00
33161;BME280;19522;45.656;11.302;2022-08-19T02:37:39;97719.38;;;19.18;100.00
33161;BME280;19522;45.656;11.302;2022-08-19T02:40:23;97709.69;;;19.15;100.00
33161;BME280;19522;45.656;11.302;2022-08-19T02:42:49;97703.66;;;19.19;100.00
33161;BME280;19522;45.656;11.302;2022-08-19T02:45:15;97663.16;;;19.09;100.00
33161;BME280;19522;45.656;11.302;2022-08-19T02:47:40;97667.69;;;19.25;100.00
33161;BME280;19522;45.656;11.302;2022-08-19T02:50:10;97613.66;;;19.14;100.00
33161;BME280;19522;45.656;11.302;2022-08-19T02:52:36;97623.44;;;19.37;100.00
33161;BME280;19522;45.656;11.302;2022-08-19T02:55:02;97625.88;;;19.34;100.00
33161;BME280;19522;45.656;11.302;2022-08-19T02:57:27;97670.25;;;18.99;100.00
33161;BME280;19522;45.656;11.302;2022-08-19T02:59:59;97674.31;;;18.97;100.00
33161;BME280;19522;45.656;11.302;2022-08-19T03:02:25;97694.41;;;18.97;100.00
33161;BME280;19522;45.656;11.302;2022-08-19T03:04:50;97677.78;;;18.87;100.00
33161;BME280;19522;45.656;11.302;2022-08-19T03:07:16;97638.88;;;18.73;100.00
33161;BME280;19522;45.656;11.302;2022-08-19T03:09:42;97676.94;;;19.14;100.00
33161;BME280;19522;45.656;11.302;2022-08-19T03:12:08;97680.66;;;19.30;100.00
33161;BME280;19522;45.656;11.302;2022-08-19T03:14:34;97663.00;;;19.26;100.00
33161;BME280;19522;45.656;11.302;2022-08-19T03:17:03;97646.09;;;19.12;100.00
33161;BME280;19522;45.656;11.302;2022-08-19T03:19:30;97652.31;;;19.35;100.00
33161;BME280;19522;45.656;11.302;2022-08-19T03:21:57;97650.03;;;19.21;100.00
33161;BME280;19522;45.656;11.302;2022-08-19T03:24:22;97631.22;;;19.08;100.00
33161;BME280;19522;45.656;11.302;2022-08-19T03:26:52;97681.75;;;19.29;100.00
33161;BME280;19522;45.656;11.302;2022-08-19T03:29:23;97690.22;;;19.22;100.00
33161;BME280;19522;45.656;11.302;2022-08-19T03:31:49;97664.16;;;18.97;100.00
33161;BME280;19522;45.656;11.302;2022-08-19T03:34:23;97662.41;;;18.91;100.00
33161;BME280;19522;45.656;11.302;2022-08-19T03:36:51;97686.28;;;19.13;100.00
33161;BME280;19522;45.656;11.302;2022-08-19T03:39:20;97668.44;;;18.88;100.00
33161;BME280;19522;45.656;11.302;2022-08-19T03:41:47;97698.44;;;18.90;100.00
33161;BME280;19522;45.656;11.302;2022-08-19T03:44:18;97705.31;;;18.87;100.00
33161;BME280;19522;45.656;11.302;2022-08-19T03:46:47;97707.47;;;18.85;100.00
33161;BME280;19522;45.656;11.302;2022-08-19T03:49:13;97698.84;;;18.76;100.00
33161;BME280;19522;45.656;11.302;2022-08-19T03:51:38;97726.22;;;18.88;100.00
33161;BME280;19522;45.656;11.302;2022-08-19T03:54:06;97738.53;;;18.85;100.00
33161;BME280;19522;45.656;11.302;2022-08-19T03:56:39;97707.38;;;18.75;100.00
33161;BME280;19522;45.656;11.302;2022-08-19T03:59:07;97742.28;;;18.96;100.00
33161;BME280;19522;45.656;11.302;2022-08-19T04:01:34;97689.09;;;18.63;100.00
33161;BME280;19522;45.656;11.302;2022-08-19T04:04:00;97740.03;;;18.93;99.88
33161;BME280;19522;45.656;11.302;2022-08-19T04:06:29;97758.59;;;19.03;98.83
33161;BME280;19522;45.656;11.302;2022-08-19T04:08:57;97762.94;;;18.99;98.83
33161;BME280;19522;45.656;11.302;2022-08-19T04:11:27;97757.03;;;18.90;99.12
33161;BME280;19522;45.656;11.302;2022-08-19T04:13:53;97762.88;;;18.72;99.57
33161;BME280;19522;45.656;11.302;2022-08-19T04:16:21;97770.63;;;18.75;99.23
33161;BME280;19522;45.656;11.302;2022-08-19T04:18:47;97774.72;;;18.72;100.00
33161;BME280;19522;45.656;11.302;2022-08-19T04:21:19;97784.94;;;18.77;100.00
33161;BME280;19522;45.656;11.302;2022-08-19T04:23:45;97782.78;;;18.79;100.00
33161;BME280;19522;45.656;11.302;2022-08-19T04:26:17;97745.31;;;18.50;99.54
33161;BME280;19522;45.656;11.302;2022-08-19T04:28:43;97786.94;;;18.81;99.82
33161;BME280;19522;45.656;11.302;2022-08-19T04:31:14;97798.28;;;18.90;98.76
33161;BME280;19522;45.656;11.302;2022-08-19T04:33:40;97751.44;;;18.58;98.14
33161;BME280;19522;45.656;11.302;2022-08-19T04:36:06;97766.94;;;18.64;98.22
33161;BME280;19522;45.656;11.302;2022-08-19T04:38:31;97802.03;;;18.79;98.60
33161;BME280;19522;45.656;11.302;2022-08-19T04:40:57;97806.50;;;18.85;98.85
33161;BME280;19522;45.656;11.302;2022-08-19T04:43:44;97779.03;;;18.63;98.96
33161;BME280;19522;45.656;11.302;2022-08-19T04:46:12;97761.69;;;18.62;98.85
33161;BME280;19522;45.656;11.302;2022-08-19T04:48:39;97792.94;;;18.78;98.71
33161;BME280;19522;45.656;11.302;2022-08-19T04:51:10;97745.94;;;18.58;98.59
33161;BME280;19522;45.656;11.302;2022-08-19T04:53:38;97794.34;;;18.81;97.85
33161;BME280;19522;45.656;11.302;2022-08-19T04:56:13;97766.34;;;18.62;97.59
33161;BME280;19522;45.656;11.302;2022-08-19T04:58:40;97783.44;;;18.42;97.54
33161;BME280;19522;45.656;11.302;2022-08-19T05:01:16;97791.78;;;18.52;97.14
33161;BME280;19522;45.656;11.302;2022-08-19T05:03:42;97832.03;;;18.58;97.60
33161;BME280;19522;45.656;11.302;2022-08-19T05:06:11;97828.06;;;18.49;99.81
33161;BME280;19522;45.656;11.302;2022-08-19T05:08:38;97815.72;;;18.29;100.00
33161;BME280;19522;45.656;11.302;2022-08-19T05:11:12;97829.97;;;18.48;100.00
33161;BME280;19522;45.656;11.302;2022-08-19T05:13:39;97829.28;;;18.58;100.00
33161;BME280;19522;45.656;11.302;2022-08-19T05:16:05;97826.44;;;18.53;100.00
33161;BME280;19522;45.656;11.302;2022-08-19T05:18:31;97779.03;;;18.41;100.00
33161;BME280;19522;45.656;11.302;2022-08-19T05:21:17;97804.97;;;18.72;99.69
33161;BME280;19522;45.656;11.302;2022-08-19T05:24:02;97794.34;;;18.81;98.74
33161;BME280;19522;45.656;11.302;2022-08-19T05:26:28;97761.00;;;18.50;98.80
33161;BME280;19522;45.656;11.302;2022-08-19T05:28:54;97795.84;;;18.66;99.54
33161;BME280;19522;45.656;11.302;2022-08-19T05:31:20;97790.59;;;18.65;98.98
33161;BME280;19522;45.656;11.302;2022-08-19T05:33:46;97770.03;;;18.73;98.49
33161;BME280;19522;45.656;11.302;2022-08-19T05:36:12;97747.22;;;18.72;98.72
33161;BME280;19522;45.656;11.302;2022-08-19T05:38:40;97733.28;;;18.79;97.32
33161;BME280;19522;45.656;11.302;2022-08-19T05:41:09;97745.03;;;18.96;96.93
33161;BME280;19522;45.656;11.302;2022-08-19T05:43:35;97744.03;;;19.08;95.06
33161;BME280;19522;45.656;11.302;2022-08-19T05:46:01;97697.03;;;18.87;93.90
33161;BME280;19522;45.656;11.302;2022-08-19T05:48:29;97710.09;;;18.97;94.45
33161;BME280;19522;45.656;11.302;2022-08-19T05:50:56;97737.50;;;19.19;94.81
33161;BME280;19522;45.656;11.302;2022-08-19T05:53:31;97728.00;;;19.32;94.27
33161;BME280;19522;45.656;11.302;2022-08-19T05:55:57;97738.84;;;19.49;94.08
33161;BME280;19522;45.656;11.302;2022-08-19T05:58:23;97718.47;;;19.45;93.98
33161;BME280;19522;45.656;11.302;2022-08-19T06:00:50;97716.03;;;19.54;93.39
33161;BME280;19522;45.656;11.302;2022-08-19T06:03:16;97744.22;;;19.66;93.32
33161;BME280;19522;45.656;11.302;2022-08-19T06:05:45;97690.06;;;19.39;93.48
33161;BME280;19522;45.656;11.302;2022-08-19T06:08:11;97684.59;;;19.44;92.47
33161;BME280;19522;45.656;11.302;2022-08-19T06:10:36;97696.66;;;19.76;92.71
33161;BME280;19522;45.656;11.302;2022-08-19T06:13:02;97695.63;;;19.87;92.40
33161;BME280;19522;45.656;11.302;2022-08-19T06:15:28;97696.31;;;19.67;93.53
33161;BME280;19522;45.656;11.302;2022-08-19T06:17:53;97710.34;;;19.66;93.78
33161;BME280;19522;45.656;11.302;2022-08-19T06:20:19;97715.66;;;19.77;93.28
33161;BME280;19522;45.656;11.302;2022-08-19T06:22:47;97713.81;;;19.88;90.90
33161;BME280;19522;45.656;11.302;2022-08-19T06:25:17;97698.72;;;20.01;89.32
33161;BME280;19522;45.656;11.302;2022-08-19T06:27:44;97705.59;;;19.93;88.97
33161;BME280;19522;45.656;11.302;2022-08-19T06:30:10;97660.50;;;19.67;89.30
33161;BME280;19522;45.656;11.302;2022-08-19T06:32:36;97671.84;;;19.76;89.80
33161;BME280;19522;45.656;11.302;2022-08-19T06:35:03;97652.25;;;19.67;91.90
33161;BME280;19522;45.656;11.302;2022-08-19T06:37:28;97680.31;;;19.64;91.34
33161;BME280;19522;45.656;11.302;2022-08-19T06:39:54;97674.72;;;19.49;92.45
33161;BME280;19522;45.656;11.302;2022-08-19T06:42:20;97679.44;;;19.58;92.83
33161;BME280;19522;45.656;11.302;2022-08-19T06:44:47;97683.63;;;19.61;95.10
33161;BME280;19522;45.656;11.302;2022-08-19T06:47:17;97684.09;;;19.53;95.04
33161;BME280;19522;45.656;11.302;2022-08-19T06:49:43;97670.00;;;19.44;96.43
33161;BME280;19522;45.656;11.302;2022-08-19T06:52:09;97706.28;;;19.78;96.64
33161;BME280;19522;45.656;11.302;2022-08-19T06:54:38;97709.91;;;19.84;96.37
33161;BME280;19522;45.656;11.302;2022-08-19T06:57:05;97691.94;;;19.76;96.27
33161;BME280;19522;45.656;11.302;2022-08-19T06:59:32;97724.19;;;19.76;95.61
33161;BME280;19522;45.656;11.302;2022-08-19T07:02:03;97721.63;;;19.64;97.74
33161;BME280;19522;45.656;11.302;2022-08-19T07:04:31;97710.09;;;19.72;97.33
33161;BME280;19522;45.656;11.302;2022-08-19T07:07:05;97723.63;;;19.79;98.22
33161;BME280;19522;45.656;11.302;2022-08-19T07:09:33;97722.78;;;19.73;98.35
33161;BME280;19522;45.656;11.302;2022-08-19T07:11:59;97707.56;;;19.60;99.83
33161;BME280;19522;45.656;11.302;2022-08-19T07:14:26;97694.13;;;19.31;100.00
33161;BME280;19522;45.656;11.302;2022-08-19T07:16:53;97745.00;;;19.56;100.00
33161;BME280;19522;45.656;11.302;2022-08-19T07:19:22;97724.59;;;19.57;100.00
33161;BME280;19522;45.656;11.302;2022-08-19T07:21:49;97742.19;;;19.51;100.00
33161;BME280;19522;45.656;11.302;2022-08-19T07:24:21;97763.22;;;19.68;100.00
33161;BME280;19522;45.656;11.302;2022-08-19T07:26:50;97742.56;;;19.65;100.00
33161;BME280;19522;45.656;11.302;2022-08-19T07:29:18;97750.31;;;19.73;100.00
33161;BME280;19522;45.656;11.302;2022-08-19T07:31:44;97745.06;;;19.67;100.00
33161;BME280;19522;45.656;11.302;2022-08-19T07:34:10;97761.13;;;19.80;100.00
33161;BME280;19522;45.656;11.302;2022-08-19T07:36:39;97761.34;;;19.73;99.24
33161;BME280;19522;45.656;11.302;2022-08-19T07:39:11;97756.00;;;19.56;100.00
33161;BME280;19522;45.656;11.302;2022-08-19T07:41:38;97746.03;;;19.50;100.00
33161;BME280;19522;45.656;11.302;2022-08-19T07:44:05;97752.09;;;19.52;100.00
33161;BME280;19522;45.656;11.302;2022-08-19T07:46:37;97760.22;;;19.69;99.93
33161;BME280;19522;45.656;11.302;2022-08-19T07:49:07;97757.41;;;19.64;100.00
33161;BME280;19522;45.656;11.302;2022-08-19T07:51:34;97749.31;;;19.47;100.00
33161;BME280;19522;45.656;11.302;2022-08-19T07:54:00;97729.03;;;19.26;100.00
33161;BME280;19522;45.656;11.302;2022-08-19T07:56:26;97736.78;;;19.29;100.00
33161;BME280;19522;45.656;11.302;2022-08-19T07:58:52;97764.81;;;19.58;100.00
33161;BME280;19522;45.656;11.302;2022-08-19T08:01:21;97765.66;;;19.59;100.00
33161;BME280;19522;45.656;11.302;2022-08-19T08:03:48;97766.22;;;19.61;100.00
33161;BME280;19522;45.656;11.302;2022-08-19T08:06:33;97766.09;;;19.45;100.00
33161;BME280;19522;45.656;11.302;2022-08-19T08:09:24;97770.88;;;19.23;100.00
33161;BME280;19522;45.656;11.302;2022-08-19T08:11:56;97773.34;;;19.24;100.00
33161;BME280;19522;45.656;11.302;2022-08-19T08:14:46;97784.47;;;19.40;100.00
33161;BME280;19522;45.656;11.302;2022-08-19T08:17:14;97766.28;;;19.34;100.00
33161;BME280;19522;45.656;11.302;2022-08-19T08:19:41;97781.59;;;19.24;99.79
33161;BME280;19522;45.656;11.302;2022-08-19T08:22:09;97782.78;;;19.34;99.87
33161;BME280;19522;45.656;11.302;2022-08-19T08:24:55;97787.41;;;19.00;97.50
33161;BME280;19522;45.656;11.302;2022-08-19T08:27:24;97794.25;;;18.71;100.00
33161;BME280;19522;45.656;11.302;2022-08-19T08:29:50;97810.59;;;19.05;100.00
33161;BME280;19522;45.656;11.302;2022-08-19T08:32:15;97804.56;;;19.08;99.68
33161;BME280;19522;45.656;11.302;2022-08-19T08:34:42;97807.78;;;18.99;100.00
33161;BME280;19522;45.656;11.302;2022-08-19T08:37:07;97788.84;;;19.03;100.00
33161;BME280;19522;45.656;11.302;2022-08-19T08:39:33;97814.53;;;19.14;100.00
33161;BME280;19522;45.656;11.302;2022-08-19T08:47:04;97783.06;;;19.05;100.00
33161;BME280;19522;45.656;11.302;2022-08-19T08:49:46;97785.97;;;19.20;98.70
33161;BME280;19522;45.656;11.302;2022-08-19T08:54:53;97808.81;;;18.93;95.91
33161;BME280;19522;45.656;11.302;2022-08-19T09:00:07;97786.84;;;18.76;97.38
33161;BME280;19522;45.656;11.302;2022-08-19T09:02:33;97808.94;;;18.59;100.00
33161;BME280;19522;45.656;11.302;2022-08-19T09:04:59;97798.97;;;18.53;100.00
33161;BME280;19522;45.656;11.302;2022-08-19T09:07:46;97807.88;;;18.60;100.00
33161;BME280;19522;45.656;11.302;2022-08-19T09:10:37;97821.84;;;18.59;100.00
33161;BME280;19522;45.656;11.302;2022-08-19T09:13:07;97837.75;;;18.34;100.00
33161;BME280;19522;45.656;11.302;2022-08-19T09:15:48;97843.16;;;18.07;100.00
33161;BME280;19522;45.656;11.302;2022-08-19T09:18:15;97848.75;;;18.34;100.00
33161;BME280;19522;45.656;11.302;2022-08-19T09:20:42;97850.09;;;18.32;100.00
33161;BME280;19522;45.656;11.302;2022-08-19T09:23:07;97877.69;;;18.20;100.00
33161;BME280;19522;45.656;11.302;2022-08-19T09:25:33;97887.50;;;18.16;100.00
33161;BME280;19522;45.656;11.302;2022-08-19T09:28:00;97875.59;;;18.10;100.00
33161;BME280;19522;45.656;11.302;2022-08-19T09:30:31;97860.41;;;18.02;100.00
33161;BME280;19522;45.656;11.302;2022-08-19T09:32:58;97863.38;;;18.18;100.00
33161;BME280;19522;45.656;11.302;2022-08-19T09:35:25;97860.50;;;18.30;100.00
33161;BME280;19522;45.656;11.302;2022-08-19T09:37:52;97859.66;;;18.46;100.00
33161;BME280;19522;45.656;11.302;2022-08-19T09:40:18;97837.84;;;18.62;100.00
33161;BME280;19522;45.656;11.302;2022-08-19T09:42:45;97777.09;;;18.63;100.00
33161;BME280;19522;45.656;11.302;2022-08-19T09:45:15;97764.72;;;18.88;100.00
33161;BME280;19522;45.656;11.302;2022-08-19T09:47:42;97754.25;;;19.12;100.00
33161;BME280;19522;45.656;11.302;2022-08-19T09:50:10;97744.38;;;19.17;100.00
33161;BME280;19522;45.656;11.302;2022-08-19T09:52:36;97728.03;;;19.05;100.00
33161;BME280;19522;45.656;11.302;2022-08-19T09:55:07;97743.47;;;19.06;98.86
33161;BME280;19522;45.656;11.302;2022-08-19T09:57:33;97687.59;;;18.78;97.44
33161;BME280;19522;45.656;11.302;2022-08-19T09:59:58;97716.56;;;19.13;97.44
33161;BME280;19522;45.656;11.302;2022-08-19T10:02:24;97693.88;;;19.00;95.94
33161;BME280;19522;45.656;11.302;2022-08-19T10:04:50;97741.28;;;19.40;95.90
33161;BME280;19522;45.656;11.302;2022-08-19T10:07:34;97706.53;;;19.34;94.46
33161;BME280;19522;45.656;11.302;2022-08-19T10:10:01;97738.31;;;19.47;98.69
33161;BME280;19522;45.656;11.302;2022-08-19T10:12:26;97737.28;;;19.58;98.94
33161;BME280;19522;45.656;11.302;2022-08-19T10:14:52;97669.19;;;19.06;99.00
33161;BME280;19522;45.656;11.302;2022-08-19T10:17:19;97729.81;;;19.54;99.14
33161;BME280;19522;45.656;11.302;2022-08-19T10:19:45;97731.16;;;19.51;99.26
33161;BME280;19522;45.656;11.302;2022-08-19T10:22:11;97689.22;;;19.39;99.13
33161;BME280;19522;45.656;11.302;2022-08-19T10:24:40;97748.94;;;19.71;99.16
33161;BME280;19522;45.656;11.302;2022-08-19T10:27:06;97741.41;;;19.93;97.44
33161;BME280;19522;45.656;11.302;2022-08-19T10:29:32;97712.75;;;19.95;96.02
33161;BME280;19522;45.656;11.302;2022-08-19T10:32:07;97733.88;;;20.37;93.53
33161;BME280;19522;45.656;11.302;2022-08-19T10:34:34;97720.13;;;20.47;94.38
33161;BME280;19522;45.656;11.302;2022-08-19T10:37:02;97700.56;;;20.54;91.27
33161;BME280;19522;45.656;11.302;2022-08-19T10:39:34;97705.28;;;20.64;90.52
33161;BME280;19522;45.656;11.302;2022-08-19T10:42:10;97714.63;;;20.42;87.83
33161;BME280;19522;45.656;11.302;2022-08-19T10:44:36;97711.03;;;20.47;86.66
33161;BME280;19522;45.656;11.302;2022-08-19T10:47:02;97711.84;;;20.42;89.24
33161;BME280;19522;45.656;11.302;2022-08-19T10:49:29;97685.03;;;20.17;87.15
33161;BME280;19522;45.656;11.302;2022-08-19T10:51:55;97700.84;;;20.52;86.37
33161;BME280;19522;45.656;11.302;2022-08-19T10:54:40;97689.75;;;20.32;89.51
33161;BME280;19522;45.656;11.302;2022-08-19T10:57:24;97694.25;;;20.59;86.22
33161;BME280;19522;45.656;11.302;2022-08-19T10:59:55;97674.91;;;20.53;82.63
33161;BME280;19522;45.656;11.302;2022-08-19T11:02:21;97656.19;;;20.66;85.45
33161;BME280;19522;45.656;11.302;2022-08-19T11:04:46;97692.94;;;21.18;83.74
33161;BME280;19522;45.656;11.302;2022-08-19T11:07:15;97703.69;;;21.51;84.28
33161;BME280;19522;45.656;11.302;2022-08-19T11:09:41;97663.38;;;21.70;83.48
33161;BME280;19522;45.656;11.302;2022-08-19T11:12:08;97684.84;;;21.99;83.17
33161;BME280;19522;45.656;11.302;2022-08-19T11:14:35;97690.03;;;22.21;83.91
33161;BME280;19522;45.656;11.302;2022-08-19T11:17:01;97688.81;;;22.48;80.87
33161;BME280;19522;45.656;11.302;2022-08-19T11:19:27;97685.13;;;22.63;79.45
33161;BME280;19522;45.656;11.302;2022-08-19T11:21:53;97686.38;;;22.81;78.29
33161;BME280;19522;45.656;11.302;2022-08-19T11:24:22;97674.31;;;23.07;77.18
33161;BME280;19522;45.656;11.302;2022-08-19T11:26:51;97683.91;;;23.19;77.92
33161;BME280;19522;45.656;11.302;2022-08-19T11:29:20;97666.00;;;23.07;75.88
33161;BME280;19522;45.656;11.302;2022-08-19T11:31:49;97682.97;;;23.34;76.17
33161;BME280;19522;45.656;11.302;2022-08-19T11:34:17;97692.38;;;23.33;75.63
33161;BME280;19522;45.656;11.302;2022-08-19T11:36:45;97693.22;;;23.34;77.88
33161;BME280;19522;45.656;11.302;2022-08-19T11:39:18;97697.59;;;23.40;75.91
33161;BME280;19522;45.656;11.302;2022-08-19T11:41:47;97678.66;;;23.18;72.36
33161;BME280;19522;45.656;11.302;2022-08-19T11:44:13;97635.91;;;22.95;73.35
33161;BME280;19522;45.656;11.302;2022-08-19T11:46:40;97699.72;;;23.19;73.44
33161;BME280;19522;45.656;11.302;2022-08-19T11:49:07;97648.75;;;22.80;73.04
33161;BME280;19522;45.656;11.302;2022-08-19T11:51:35;97680.94;;;23.45;74.39
33161;BME280;19522;45.656;11.302;2022-08-19T11:54:04;97702.28;;;23.74;71.71
33161;BME280;19522;45.656;11.302;2022-08-19T11:56:29;97573.69;;;22.87;74.86
33161;BME280;19522;45.656;11.302;2022-08-19T11:58:55;97676.59;;;23.34;73.67
33161;BME280;19522;45.656;11.302;2022-08-19T12:01:23;97706.34;;;23.53;73.34
33161;BME280;19522;45.656;11.302;2022-08-19T12:03:54;97587.06;;;22.80;72.23
33161;BME280;19522;45.656;11.302;2022-08-19T12:06:23;97651.28;;;23.11;71.86
33161;BME280;19522;45.656;11.302;2022-08-19T12:08:51;97664.69;;;23.33;71.86
33161;BME280;19522;45.656;11.302;2022-08-19T12:11:16;97709.38;;;23.56;72.72
33161;BME280;19522;45.656;11.302;2022-08-19T12:13:42;97708.00;;;23.54;72.50
33161;BME280;19522;45.656;11.302;2022-08-19T12:16:14;97670.09;;;23.14;75.60
33161;BME280;19522;45.656;11.302;2022-08-19T12:18:40;97718.75;;;23.60;73.05
33161;BME280;19522;45.656;11.302;2022-08-19T12:21:17;97711.84;;;23.87;74.07
33161;BME280;19522;45.656;11.302;2022-08-19T12:23:43;97724.19;;;24.24;73.18
33161;BME280;19522;45.656;11.302;2022-08-19T12:26:11;97729.75;;;24.24;73.11
33161;BME280;19522;45.656;11.302;2022-08-19T12:28:36;97730.84;;;24.48;72.80
33161;BME280;19522;45.656;11.302;2022-08-19T12:31:02;97734.13;;;24.74;71.21
33161;BME280;19522;45.656;11.302;2022-08-19T12:33:28;97735.28;;;24.49;69.10
33161;BME280;19522;45.656;11.302;2022-08-19T12:35:54;97729.13;;;24.52;71.82
33161;BME280;19522;45.656;11.302;2022-08-19T12:38:20;97735.88;;;24.89;67.75
33161;BME280;19522;45.656;11.302;2022-08-19T12:40:49;97732.09;;;24.99;65.04
33161;BME280;19522;45.656;11.302;2022-08-19T12:43:17;97734.50;;;25.05;63.21
33161;BME280;19522;45.656;11.302;2022-08-19T12:45:45;97735.19;;;24.97;61.76
33161;BME280;19522;45.656;11.302;2022-08-19T12:48:10;97721.72;;;24.47;62.51
33161;BME280;19522;45.656;11.302;2022-08-19T12:50:39;97746.41;;;24.43;63.52
33161;BME280;19522;45.656;11.302;2022-08-19T12:53:05;97740.31;;;24.22;63.66
33161;BME280;19522;45.656;11.302;2022-08-19T12:55:33;97749.84;;;24.11;64.36
33161;BME280;19522;45.656;11.302;2022-08-19T12:57:59;97730.16;;;23.83;63.59
33161;BME280;19522;45.656;11.302;2022-08-19T13:00:27;97748.16;;;23.86;62.43
33161;BME280;19522;45.656;11.302;2022-08-19T13:02:53;97734.66;;;23.79;63.60
33161;BME280;19522;45.656;11.302;2022-08-19T13:05:27;97754.06;;;23.79;62.96